Salt Point, Louisiana
Current Conditions -  °F | °C
As of 4:35 AM on Wednesday 22 Oct 2014 (Local Time) from KPTN Reporting Station
Clear Clear  
Wind Chill: 59°   Ceiling: Unl
Heat Index: 59°   Visibility: 5mi
Dew Point: 57°   Wind: 3mph
Humidity: 94%   Direction: 50°NE
Pressure: 30.05"   Gusts: NA
Location:  29.52°N, 91.55°W
Report Text: KPTN 220935Z AUTO 05003KT 5SM CLR 15/14 A3005 RMK AO1
Loading
Personal Weather Stations






























Interactive Weather Map
Tropical Storm Tracking
New forecast layout! Learn more

10-Day Weather Forecast

Advertisements
Track Severe Weather on mobile